Time;durP1;ratioP1;P1;durP2;ratioP2;P2;SDS_P1;SDS_P2;PMS_P1;PMS_P2;Temp;Humidity;BMP_temperature;BMP_pressure;BME280_temperature;BME280_humidity;BME280_pressure;Samples;Min_cycle;Max_cycle;Signal;HPM_P1;HPM_P2
2023/10/16 00:03:41;;;;;;;6.30;4.80;;;;;;;9.18;44.66;100004.88;10414858;28;20247;-67
2023/10/16 00:08:47;;;;;;;3.97;3.50;;;;;;;8.39;44.85;100164.53;10416564;28;20259;-67
2023/10/16 00:13:50;;;;;;;7.43;3.80;;;;;;;7.25;47.66;100109.53;10422100;28;20239;-66
2023/10/16 00:18:53;;;;;;;4.97;3.33;;;;;;;8.82;44.29;100161.81;10430083;28;20786;-66
2023/10/16 00:23:56;;;;;;;3.57;3.20;;;;;;;7.62;47.29;100086.34;10411923;28;20738;-66
2023/10/16 00:29:07;;;;;;;5.67;3.70;;;;;;;7.81;46.50;100159.88;10426976;28;20236;-67
2023/10/16 00:34:09;;;;;;;5.07;4.00;;;;;;;8.58;45.61;100045.22;10414757;28;20248;-67
2023/10/16 00:39:14;;;;;;;6.10;4.93;;;;;;;8.65;44.60;100129.75;10412987;28;20606;-67
2023/10/16 00:44:17;;;;;;;6.70;4.63;;;;;;;6.43;47.94;100310.78;10405362;28;20730;-67
2023/10/16 00:49:20;;;;;;;4.63;3.80;;;;;;;9.00;44.50;100077.13;10408447;28;20239;-66
2023/10/16 00:54:28;;;;;;;4.00;3.60;;;;;;;6.52;47.29;100347.16;10404631;28;20738;-66
2023/10/16 00:59:32;;;;;;;5.67;3.93;;;;;;;7.24;47.19;100094.59;10406545;28;20731;-67
2023/10/16 01:04:34;;;;;;;4.57;2.97;;;;;;;8.76;44.96;100032.56;10406105;28;20241;-67
2023/10/16 01:09:36;;;;;;;4.57;3.30;;;;;;;6.75;46.73;100318.44;10396721;28;20237;-67
2023/10/16 01:14:39;;;;;;;3.80;3.20;;;;;;;8.78;43.89;100123.97;10407620;28;20234;-67
2023/10/16 01:19:43;;;;;;;4.50;3.73;;;;;;;9.05;43.56;100073.97;10410846;28;20243;-67
2023/10/16 01:24:45;;;;;;;3.77;3.20;;;;;;;6.79;46.66;100358.88;10411993;28;20241;-66
2023/10/16 01:29:47;;;;;;;4.53;3.20;;;;;;;4.90;50.87;100368.78;10412374;28;20548;-67
2023/10/16 01:34:50;;;;;;;3.97;3.30;;;;;;;5.09;51.10;100272.53;10408425;28;20247;-67
2023/10/16 01:39:55;;;;;;;4.43;3.40;;;;;;;3.73;54.75;100240.88;10404618;28;20283;-67
2023/10/16 01:44:59;;;;;;;4.10;3.70;;;;;;;5.31;51.83;100043.22;10410897;28;20285;-65
2023/10/16 01:50:02;;;;;;;3.70;3.40;;;;;;;5.40;52.01;99994.59;10451016;28;20617;-66
2023/10/16 01:55:09;;;;;;;4.23;3.70;;;;;;;6.72;49.71;99956.97;10468037;28;20235;-66
2023/10/16 02:00:24;;;;;;;4.67;3.17;;;;;;;6.11;50.38;100027.69;10492052;28;20281;-67
2023/10/16 02:05:27;;;;;;;8.37;7.17;;;;;;;5.45;50.59;100076.41;10435868;28;20713;-68
2023/10/16 02:10:29;;;;;;;12.73;8.43;;;;;;;5.44;50.04;100090.69;10457024;28;20810;-68
2023/10/16 02:15:30;;;;;;;7.87;6.33;;;;;;;5.29;50.78;100034.56;10459753;28;20706;-68
2023/10/16 02:20:36;;;;;;;6.37;5.03;;;;;;;4.45;52.16;100110.22;10461086;28;20241;-68
2023/10/16 02:25:38;;;;;;;4.90;4.50;;;;;;;4.19;52.74;100083.38;10472028;28;20738;-68
2023/10/16 02:30:41;;;;;;;5.03;3.83;;;;;;;4.83;51.37;100001.69;10482979;28;20288;-68
2023/10/16 02:35:47;;;;;;;4.93;4.10;;;;;;;4.26;52.40;99999.72;10501664;28;20253;-69
2023/10/16 02:40:53;;;;;;;4.27;3.90;;;;;;;4.00;52.77;99987.00;10501007;28;20236;-69
2023/10/16 02:45:55;;;;;;;5.17;3.70;;;;;;;4.93;51.09;99857.50;10496565;28;20226;-69
2023/10/16 02:50:57;;;;;;;5.50;3.90;;;;;;;4.83;51.18;99864.66;10482800;28;20233;-69
2023/10/16 02:56:22;;;;;;;6.23;3.40;;;;;;;3.15;52.89;100191.84;10504650;28;20798;-67
2023/10/16 03:01:23;;;;;;;6.53;4.13;;;;;;;4.49;52.07;99925.28;10502749;28;20287;-69
2023/10/16 03:06:30;;;;;;;5.10;3.80;;;;;;;4.86;51.14;99973.09;10503620;28;20244;-69
2023/10/16 03:11:32;;;;;;;6.67;4.60;;;;;;;5.51;50.84;99834.28;10504058;28;20229;-69
2023/10/16 03:16:36;;;;;;;4.47;3.80;;;;;;;5.11;50.68;100006.09;10501484;28;20811;-69
2023/10/16 03:21:39;;;;;;;4.03;3.63;;;;;;;4.69;52.13;99971.97;10501542;28;20230;-69
2023/10/16 03:26:42;;;;;;;5.10;4.30;;;;;;;5.04;51.99;99914.81;10500448;28;20608;-69
2023/10/16 03:31:44;;;;;;;5.17;4.37;;;;;;;4.75;51.67;99997.09;10499036;28;20321;-69
2023/10/16 03:36:49;;;;;;;5.00;4.50;;;;;;;4.58;52.51;99925.25;10485494;28;22126;-69
2023/10/16 03:41:50;;;;;;;5.30;4.80;;;;;;;3.72;53.00;100041.53;10497433;28;20234;-69
2023/10/16 03:46:55;;;;;;;5.87;4.97;;;;;;;4.14;53.57;99857.81;10480741;28;20222;-69
2023/10/16 03:51:57;;;;;;;4.67;4.00;;;;;;;3.88;53.03;99931.66;10503325;28;20632;-69
2023/10/16 03:57:00;;;;;;;5.83;4.37;;;;;;;2.95;53.56;100108.88;10507650;28;20247;-67
2023/10/16 04:02:04;;;;;;;4.93;4.43;;;;;;;2.30;55.57;100039.28;10508727;28;20299;-69
2023/10/16 04:07:06;;;;;;;5.13;4.40;;;;;;;2.22;56.17;99959.84;10500650;28;20223;-69
2023/10/16 04:12:17;;;;;;;5.90;5.00;;;;;;;2.26;56.11;99983.22;10508515;28;20316;-68
2023/10/16 04:17:18;;;;;;;5.57;4.97;;;;;;;3.73;53.59;99785.63;10500052;28;20279;-69
2023/10/16 04:22:24;;;;;;;8.70;5.90;;;;;;;3.64;53.28;99867.50;10505816;28;20226;-69
2023/10/16 04:27:29;;;;;;;7.37;6.40;;;;;;;4.16;52.10;99930.00;10503474;28;20230;-69
2023/10/16 04:32:47;;;;;;;7.53;6.47;;;;;;;3.91;52.75;100006.34;10505326;28;20233;-69
2023/10/16 04:37:49;;;;;;;7.47;6.03;;;;;;;3.70;54.06;99940.25;10502697;28;20223;-69
2023/10/16 04:48:23;;;;;;;6.27;5.00;;;;;;;5.25;51.83;99805.84;10508233;28;20231;-68
2023/10/16 04:53:25;;;;;;;5.93;5.33;;;;;;;3.45;53.78;100100.31;10506706;28;20238;-69
2023/10/16 04:58:38;;;;;;;6.10;4.80;;;;;;;3.47;53.97;100045.47;10499749;28;20253;-69
2023/10/16 05:14:22;;;;;;;6.70;5.10;;;;;;;2.98;55.04;100002.88;10502030;28;20238;-68
2023/10/16 06:17:51;;;;;;;6.73;4.80;;;;;;;3.76;53.47;99938.88;10501562;28;20230;-68
2023/10/16 06:22:53;;;;;;;6.60;5.87;;;;;;;2.86;55.32;100067.31;10498624;28;20290;-69
2023/10/16 06:27:55;;;;;;;5.70;4.73;;;;;;;2.68;55.87;100086.34;10503224;28;20234;-68
2023/10/16 06:32:58;;;;;;;6.23;5.63;;;;;;;4.16;53.91;99827.53;10504426;28;20228;-69
2023/10/16 06:38:01;;;;;;;6.57;5.83;;;;;;;2.39;57.34;100067.59;10503999;28;20256;-68
2023/10/16 06:43:13;;;;;;;7.83;5.83;;;;;;;2.78;56.22;100043.31;10505716;28;21215;-68
2023/10/16 06:48:15;;;;;;;6.93;5.47;;;;;;;2.75;56.63;100041.75;10499465;28;20320;-68
2023/10/16 06:53:18;;;;;;;5.20;4.63;;;;;;;3.69;54.74;99985.38;10502306;28;20233;-69
2023/10/16 06:58:23;;;;;;;7.40;6.00;;;;;;;3.82;54.78;99959.50;10502531;28;20278;-68
2023/10/16 07:03:26;;;;;;;6.97;5.63;;;;;;;4.20;53.95;100018.81;10502647;28;20238;-68
2023/10/16 07:08:30;;;;;;;7.40;6.13;;;;;;;4.30;54.49;99942.81;10499166;28;20237;-67
2023/10/16 07:13:32;;;;;;;6.57;5.70;;;;;;;4.56;54.06;99951.09;10501193;28;20317;-68
2023/10/16 07:18:35;;;;;;;6.73;5.90;;;;;;;3.96;56.11;99945.88;10504130;28;20260;-68
2023/10/16 07:23:38;;;;;;;9.07;6.47;;;;;;;4.09;55.92;99928.91;10494987;28;20223;-68
2023/10/16 07:28:40;;;;;;;6.57;5.83;;;;;;;4.23;55.74;99988.56;10493041;28;20371;-68
2023/10/16 07:33:44;;;;;;;8.50;6.20;;;;;;;4.12;56.59;99960.38;10515316;28;20828;-68
2023/10/16 07:38:48;;;;;;;9.13;6.87;;;;;;;4.65;54.95;99983.84;10492726;28;20209;-68
2023/10/16 07:43:57;;;;;;;11.17;7.50;;;;;;;5.56;54.63;99902.88;10506071;28;20235;-68
2023/10/16 07:49:09;;;;;;;9.00;6.83;;;;;;;5.64;53.68;100039.22;10507702;28;20925;-67
2023/10/16 07:54:11;;;;;;;11.03;7.30;;;;;;;4.99;55.80;100017.88;10506248;28;20258;-68
2023/10/16 07:59:18;;;;;;;8.87;7.00;;;;;;;6.23;53.16;100009.72;10504747;28;20242;-68
2023/10/16 08:14:32;;;;;;;9.90;7.60;;;;;;;5.37;56.38;99978.94;10507821;28;20242;-66
2023/10/16 08:19:36;;;;;;;9.57;7.23;;;;;;;5.33;55.26;100136.78;10507526;28;20241;-66
2023/10/16 08:24:43;;;;;;;9.20;6.33;;;;;;;5.56;54.47;100205.50;10506360;28;20230;-65
2023/10/16 08:29:59;;;;;;;9.97;6.57;;;;;;;5.03;55.43;100252.69;10508891;28;20558;-66
2023/10/16 08:35:01;;;;;;;7.60;6.80;;;;;;;5.85;54.65;100161.16;10513525;28;20272;-66
2023/10/16 08:40:19;;;;;;;9.27;7.10;;;;;;;7.19;53.15;100094.22;10507390;28;20280;-66
2023/10/16 08:45:25;;;;;;;7.93;6.40;;;;;;;7.13;53.17;100094.81;10507646;28;20228;-66
2023/10/16 08:50:49;;;;;;;7.87;6.63;;;;;;;7.60;52.65;100102.47;10508549;28;20236;-65
2023/10/16 08:55:56;;;;;;;8.70;6.80;;;;;;;7.01;53.41;100266.34;10506626;28;20226;-66
2023/10/16 09:00:58;;;;;;;7.60;5.77;;;;;;;8.81;50.63;100133.47;10505142;28;20231;-66
2023/10/16 09:06:01;;;;;;;6.97;5.40;;;;;;;8.67;50.25;100237.16;10427276;28;20327;-66
2023/10/16 09:11:06;;;;;;;7.63;5.80;;;;;;;7.34;52.04;100272.84;10427982;28;20864;-66
2023/10/16 09:16:11;;;;;;;6.10;5.50;;;;;;;10.36;47.56;100227.09;10423821;28;20260;-66
2023/10/16 09:21:13;;;;;;;6.30;5.67;;;;;;;8.67;49.88;100266.53;10421250;28;20232;-66
2023/10/16 09:26:15;;;;;;;6.93;5.33;;;;;;;8.10;49.90;100351.50;10425113;28;20774;-66
2023/10/16 09:31:18;;;;;;;8.13;5.40;;;;;;;9.79;47.01;100274.28;10425065;28;20227;-66
2023/10/16 09:36:21;;;;;;;5.83;4.57;;;;;;;8.24;49.38;100372.25;10421277;28;20312;-66
2023/10/16 09:51:57;;;;;;;7.43;4.00;;;;;;;10.20;46.95;100258.22;10416541;28;20324;-66
2023/10/16 09:57:08;;;;;;;5.87;4.40;;;;;;;10.16;47.36;100243.53;10419220;28;20375;-66
2023/10/16 10:02:18;;;;;;;6.87;4.37;;;;;;;11.21;45.31;100208.44;10433463;28;20238;-66
2023/10/16 10:07:22;;;;;;;4.87;3.97;;;;;;;10.36;45.06;100417.88;10501898;28;20232;-66
2023/10/16 10:12:28;;;;;;;5.93;4.27;;;;;;;10.30;46.38;100232.13;10485664;28;20691;-66
2023/10/16 10:17:33;;;;;;;6.07;4.10;;;;;;;9.42;46.91;100321.00;10500557;28;20262;-66
2023/10/16 10:22:37;;;;;;;5.43;3.77;;;;;;;9.65;46.81;100309.69;10505069;28;20230;-66
2023/10/16 10:27:41;;;;;;;5.87;3.90;;;;;;;9.03;47.00;100463.88;10501960;28;20320;-66
2023/10/16 10:32:58;;;;;;;4.43;3.80;;;;;;;11.28;44.72;100253.28;10484607;28;20215;-66
2023/10/16 10:38:07;;;;;;;5.57;3.30;;;;;;;11.34;44.49;100336.47;10502829;28;20621;-66
2023/10/16 10:43:09;;;;;;;4.33;3.40;;;;;;;11.98;43.53;100246.91;10507008;28;20592;-66
2023/10/16 10:48:11;;;;;;;3.40;3.10;;;;;;;12.00;42.44;100261.78;10502014;28;20238;-66
2023/10/16 10:53:16;;;;;;;4.27;2.90;;;;;;;11.12;43.39;100343.47;10495351;28;20756;-66
2023/10/16 10:58:20;;;;;;;4.07;3.53;;;;;;;11.13;42.74;100355.81;10501294;28;20219;-66
2023/10/16 11:06:19;;;;;;;3.40;2.80;;;;;;;10.19;45.19;100200.41;10473439;27;20812;-66
2023/10/16 11:11:20;;;;;;;4.57;2.83;;;;;;;8.48;45.70;100317.41;10447629;28;20324;-67
2023/10/16 11:16:24;;;;;;;2.97;2.60;;;;;;;10.68;43.14;100168.09;10448746;28;20259;-67
2023/10/16 11:21:27;;;;;;;3.27;2.63;;;;;;;10.00;43.60;100313.06;10448268;28;22112;-67
2023/10/16 11:26:29;;;;;;;4.50;2.67;;;;;;;10.06;43.67;100266.97;10448176;28;20339;-67
2023/10/16 11:31:31;;;;;;;3.27;2.47;;;;;;;8.96;45.03;100288.50;10446985;28;20718;-67
2023/10/16 11:36:36;;;;;;;3.00;2.47;;;;;;;10.55;42.74;100221.34;10447362;28;20294;-67
2023/10/16 11:41:49;;;;;;;2.30;2.10;;;;;;;9.94;43.25;100263.81;10449093;28;20542;-67
2023/10/16 11:46:53;;;;;;;4.00;2.73;;;;;;;9.59;43.39;100271.13;10456538;28;20239;-66
2023/10/16 11:52:20;;;;;;;3.97;2.30;;;;;;;10.82;42.46;100185.28;10452441;28;20722;-68
2023/10/16 11:57:25;;;;;;;2.37;2.00;;;;;;;10.96;41.49;100231.06;10455980;28;20717;-68
2023/10/16 12:02:29;;;;;;;3.43;2.50;;;;;;;10.10;41.91;100249.56;10454277;28;20481;-67
2023/10/16 12:07:43;;;;;;;6.03;2.30;;;;;;;9.64;42.79;100247.41;10452553;28;20346;-68
2023/10/16 12:12:45;;;;;;;2.20;2.00;;;;;;;10.82;41.59;100131.72;10456232;28;20226;-68
2023/10/16 12:17:47;;;;;;;3.20;2.27;;;;;;;10.19;42.06;100228.97;10427253;28;20236;-65
2023/10/16 12:22:49;;;;;;;4.80;2.73;;;;;;;11.11;41.34;100126.69;10426753;28;20790;-65
2023/10/16 12:27:51;;;;;;;3.40;2.50;;;;;;;10.42;40.47;100314.69;10422564;28;20667;-68
2023/10/16 12:32:54;;;;;;;2.10;2.00;;;;;;;10.73;41.52;100140.81;10422882;28;20239;-68
2023/10/16 12:37:56;;;;;;;4.57;2.10;;;;;;;11.07;40.06;100127.03;10426519;28;20235;-67
2023/10/16 12:43:00;;;;;;;5.50;2.33;;;;;;;10.61;40.51;100148.38;10424425;28;20678;-67
2023/10/16 12:48:03;;;;;;;2.77;2.20;;;;;;;11.80;39.64;100156.06;10428181;28;20234;-68
2023/10/16 12:53:05;;;;;;;4.17;2.30;;;;;;;11.56;39.48;100130.31;10421718;28;20239;-67
2023/10/16 12:58:10;;;;;;;2.50;2.27;;;;;;;10.45;40.43;100162.69;10418042;28;20327;-68
2023/10/16 13:03:15;;;;;;;1.90;1.70;;;;;;;11.16;39.40;100156.44;10428097;28;20244;-67
2023/10/16 13:08:20;;;;;;;1.87;1.77;;;;;;;11.82;38.90;100065.53;10423866;28;20654;-68
2023/10/16 13:13:22;;;;;;;2.43;1.93;;;;;;;10.52;39.17;100192.25;10420331;28;20731;-67
2023/10/16 13:18:27;;;;;;;1.70;1.60;;;;;;;11.04;39.23;100185.47;10426201;28;20258;-67
2023/10/16 13:23:29;;;;;;;2.43;2.00;;;;;;;11.00;39.26;100093.09;10420422;28;20900;-67
2023/10/16 13:28:47;;;;;;;2.27;1.73;;;;;;;9.96;40.06;100262.59;10421481;28;20223;-67
2023/10/16 13:33:50;;;;;;;1.73;1.63;;;;;;;11.19;39.34;100049.75;10418198;28;22030;-67
2023/10/16 13:38:53;;;;;;;2.47;2.17;;;;;;;11.91;38.21;100139.53;10426063;28;20716;-67
2023/10/16 13:43:55;;;;;;;1.73;1.63;;;;;;;11.43;38.25;100212.13;10413081;28;20256;-67
2023/10/16 13:49:00;;;;;;;1.80;1.70;;;;;;;12.26;37.65;100082.59;10422748;28;20320;-66
2023/10/16 13:54:01;;;;;;;2.23;1.53;;;;;;;10.56;38.80;100252.44;10419134;28;20236;-66
2023/10/16 13:59:03;;;;;;;1.60;1.50;;;;;;;11.49;37.70;100140.06;10422472;28;20707;-67
2023/10/16 14:04:16;;;;;;;1.83;1.70;;;;;;;10.69;38.10;100169.75;10385472;22;20226;-33
2023/10/16 14:09:28;;;;;;;1.60;1.50;;;;;;;11.14;37.78;100099.53;10290528;28;20460;-33
2023/10/16 14:14:32;;;;;;;1.60;1.50;;;;;;;11.46;37.93;100076.97;10286370;28;20247;-33
2023/10/16 14:19:35;;;;;;;2.03;1.83;;;;;;;12.14;37.64;100020.56;10418066;22;20598;-34
2023/10/16 14:24:37;;;;;;;1.87;1.77;;;;;;;10.98;38.50;100132.63;10402792;28;20234;-35
2023/10/16 14:29:44;;;;;;;1.87;1.77;;;;;;;11.13;38.13;100065.72;10426097;28;20325;-34
2023/10/16 14:34:47;;;;;;;2.00;1.83;;;;;;;10.52;38.97;100205.63;10423011;28;20717;-34
2023/10/16 14:39:51;;;;;;;1.73;1.63;;;;;;;11.42;38.47;100075.66;10414996;28;20471;-34
2023/10/16 14:44:54;;;;;;;2.87;1.87;;;;;;;12.21;38.95;99969.66;10416097;28;20228;-34
2023/10/16 14:49:56;;;;;;;2.17;1.97;;;;;;;11.50;39.56;100026.50;10421855;28;20249;-35
2023/10/16 14:54:59;;;;;;;2.17;1.97;;;;;;;11.10;40.50;100040.13;10421434;28;20878;-35
2023/10/16 15:05:12;;;;;;;2.67;2.47;;;;;;;9.24;42.62;100007.88;10424226;28;20848;-65
2023/10/16 15:10:14;;;;;;;2.40;2.20;;;;;;;9.20;42.44;100079.47;10332184;28;20272;-66
2023/10/16 15:15:17;;;;;;;3.63;2.40;;;;;;;9.55;42.17;100037.31;10336490;28;20241;-64
2023/10/16 15:20:19;;;;;;;2.97;2.17;;;;;;;10.80;41.09;99945.53;10331118;28;20887;-65
2023/10/16 15:25:20;;;;;;;2.50;2.30;;;;;;;9.76;42.25;99967.28;10331547;28;20237;-63
2023/10/16 15:30:24;;;;;;;2.70;2.50;;;;;;;9.95;42.40;99955.34;10328708;28;20268;-62
2023/10/16 15:35:29;;;;;;;2.00;1.90;;;;;;;9.61;42.65;99974.38;10328373;28;20253;-65
2023/10/16 15:40:31;;;;;;;2.20;2.00;;;;;;;10.96;41.00;99910.56;10331620;28;20337;-64
2023/10/16 15:45:34;;;;;;;2.30;2.10;;;;;;;9.79;41.47;100068.50;10334145;28;20243;-61
2023/10/16 15:50:36;;;;;;;7.13;1.80;;;;;;;10.47;41.51;99981.41;10329767;28;20327;-64
2023/10/16 15:55:38;;;;;;;5.33;2.20;;;;;;;9.59;42.48;100004.75;10331644;28;20303;-63
2023/10/16 16:00:41;;;;;;;3.47;2.30;;;;;;;9.85;42.18;99978.78;10332950;28;20248;-63
2023/10/16 16:05:43;;;;;;;2.70;2.03;;;;;;;10.22;42.04;99854.22;10332248;28;20636;-63
2023/10/16 16:10:45;;;;;;;2.57;1.93;;;;;;;10.37;41.65;99855.09;10328774;28;20933;-63
2023/10/16 16:15:47;;;;;;;2.10;2.00;;;;;;;8.84;42.61;100031.72;10309476;28;20242;-63
2023/10/16 16:20:48;;;;;;;2.17;1.90;;;;;;;10.63;40.69;99824.38;10302701;28;20234;-63
2023/10/16 16:25:53;;;;;;;2.43;2.20;;;;;;;9.62;41.89;99981.38;10305512;28;20252;-64
2023/10/16 16:30:54;;;;;;;2.20;2.00;;;;;;;10.17;41.61;99905.56;10302197;28;20264;-64
2023/10/16 16:35:56;;;;;;;2.13;1.90;;;;;;;10.14;41.46;99999.50;10302682;28;20621;-63
2023/10/16 16:40:58;;;;;;;3.10;2.07;;;;;;;11.32;40.48;99876.84;10300838;28;20773;-64
2023/10/16 16:46:00;;;;;;;5.43;2.50;;;;;;;10.31;41.99;99907.47;10303557;28;20321;-62
2023/10/16 16:51:01;;;;;;;7.37;2.47;;;;;;;9.82;41.97;100081.53;10298114;28;20258;-62
2023/10/16 16:56:04;;;;;;;2.30;2.20;;;;;;;9.65;43.12;99949.81;10296346;28;20350;-60
2023/10/16 17:01:07;;;;;;;5.13;2.30;;;;;;;9.54;43.67;99923.47;10297891;28;20261;-62
2023/10/16 17:06:09;;;;;;;3.40;2.47;;;;;;;10.21;42.80;99888.16;10299332;28;20261;-61
2023/10/16 17:11:11;;;;;;;2.93;2.50;;;;;;;10.18;42.31;99971.41;10298745;28;20342;-61
2023/10/16 17:16:13;;;;;;;4.07;2.40;;;;;;;9.82;43.08;99968.41;10310970;28;20313;-61
2023/10/16 17:21:15;;;;;;;3.27;2.13;;;;;;;9.11;44.22;100035.94;10308454;28;20241;-63
2023/10/16 17:26:19;;;;;;;3.43;2.73;;;;;;;9.22;44.01;100034.75;10304469;28;20237;-62
2023/10/16 17:31:21;;;;;;;2.20;2.00;;;;;;;9.34;43.58;100051.25;10308559;28;20269;-61
2023/10/16 17:36:23;;;;;;;2.50;2.23;;;;;;;8.89;44.43;100031.25;10306889;28;20234;-61
2023/10/16 17:41:25;;;;;;;2.70;2.20;;;;;;;9.14;43.86;100024.88;10305249;28;20317;-61
2023/10/16 17:46:26;;;;;;;2.20;2.00;;;;;;;9.42;43.37;100023.69;10327405;28;20336;-63
2023/10/16 17:51:33;;;;;;;2.50;2.30;;;;;;;9.95;43.64;99889.34;10341098;28;20795;-63
2023/10/16 17:56:35;;;;;;;2.67;2.03;;;;;;;9.46;43.80;100023.16;10315068;28;20269;-63
2023/10/16 18:01:38;;;;;;;3.63;1.90;;;;;;;9.44;44.40;99958.41;10302376;28;20434;-65
2023/10/16 18:06:39;;;;;;;2.20;2.00;;;;;;;9.63;44.53;99889.53;10298081;28;20327;-63
2023/10/16 18:11:41;;;;;;;2.10;1.90;;;;;;;10.15;43.65;99900.38;10301722;28;20257;-66
2023/10/16 18:16:43;;;;;;;4.83;2.73;;;;;;;8.01;46.81;100013.94;10302595;28;20249;-66
2023/10/16 18:21:47;;;;;;;4.13;2.63;;;;;;;9.26;44.63;99950.59;10302383;28;20265;-67
2023/10/16 18:26:49;;;;;;;3.83;2.27;;;;;;;9.24;44.87;99957.13;10297455;28;20242;-66
2023/10/16 18:31:52;;;;;;;2.60;2.27;;;;;;;8.06;46.20;100048.94;10301030;28;20245;-66
2023/10/16 18:36:54;;;;;;;2.60;2.20;;;;;;;9.28;45.10;99889.00;10308322;28;21225;-65
2023/10/16 18:41:56;;;;;;;3.33;2.40;;;;;;;8.25;45.49;100080.66;10297657;28;20229;-66
2023/10/16 18:46:57;;;;;;;2.60;2.40;;;;;;;7.84;46.71;100027.19;10301394;28;20767;-65
2023/10/16 18:51:59;;;;;;;2.67;2.47;;;;;;;7.91;46.31;100043.38;10302775;28;20222;-64
2023/10/16 18:57:02;;;;;;;2.70;2.43;;;;;;;7.76;46.78;100028.97;10304353;28;20738;-62
2023/10/16 19:02:04;;;;;;;2.90;2.40;;;;;;;8.79;45.51;99914.84;10296652;28;20597;-62
2023/10/16 19:07:06;;;;;;;3.63;2.80;;;;;;;8.91;45.01;99946.50;10331094;28;20229;-62
2023/10/16 19:12:10;;;;;;;3.50;2.47;;;;;;;7.48;46.81;100104.56;10336376;28;20226;-62
2023/10/16 19:17:12;;;;;;;2.83;2.63;;;;;;;9.64;44.78;99792.34;10309241;28;20623;-63
2023/10/16 19:22:14;;;;;;;2.83;2.50;;;;;;;8.35;45.77;99957.03;10291918;28;20261;-65
2023/10/16 19:27:17;;;;;;;3.57;2.50;;;;;;;8.96;45.50;99835.59;10300922;28;20230;-62
2023/10/16 19:32:19;;;;;;;3.17;2.20;;;;;;;9.42;44.85;99808.19;10331057;28;20230;-64
2023/10/16 19:37:22;;;;;;;3.30;2.40;;;;;;;9.16;45.09;99827.16;10302169;28;20245;-66
2023/10/16 19:42:24;;;;;;;4.40;3.00;;;;;;;7.55;47.16;99976.94;10298161;28;20620;-65
2023/10/16 19:47:25;;;;;;;5.70;2.70;;;;;;;8.47;46.39;99875.69;10292671;28;20325;-63
2023/10/16 19:52:28;;;;;;;3.50;2.60;;;;;;;9.03;45.21;99847.25;10306103;28;20252;-63
2023/10/16 19:57:29;;;;;;;5.23;3.10;;;;;;;8.69;45.80;99858.16;10302931;28;20241;-63
2023/10/16 20:02:31;;;;;;;3.37;2.73;;;;;;;8.29;46.46;99867.88;10312314;23;20752;-33
2023/10/16 20:07:33;;;;;;;5.17;3.37;;;;;;;8.65;45.83;99868.31;10274868;28;20234;-35
2023/10/16 20:12:34;;;;;;;3.63;3.13;;;;;;;9.09;45.67;99820.84;10271114;28;20366;-33
2023/10/16 20:17:37;;;;;;;3.27;2.80;;;;;;;8.52;45.74;99924.00;10256308;22;20254;-65
2023/10/16 20:22:40;;;;;;;3.13;2.83;;;;;;;8.64;45.53;99924.50;10290050;28;20318;-66
2023/10/16 20:27:42;;;;;;;3.50;2.87;;;;;;;8.78;45.59;99891.81;10295668;28;20293;-64
2023/10/16 20:32:46;;;;;;;3.23;2.80;;;;;;;8.15;46.72;99917.38;10299143;28;20238;-64
2023/10/16 20:37:51;;;;;;;3.37;3.07;;;;;;;7.97;46.56;100033.94;10302240;28;20242;-64
2023/10/16 20:42:56;;;;;;;3.07;2.83;;;;;;;8.50;46.18;99941.19;10302309;28;20280;-64
2023/10/16 20:47:58;;;;;;;3.50;3.20;;;;;;;7.41;48.44;99938.44;10294170;28;20373;-65
2023/10/16 20:53:03;;;;;;;3.80;3.40;;;;;;;7.17;49.33;99884.09;10303480;28;20758;-65
2023/10/16 20:58:05;;;;;;;5.97;3.73;;;;;;;7.88;48.03;99867.84;10299053;28;20717;-65
2023/10/16 21:03:06;;;;;;;8.57;3.77;;;;;;;7.23;49.05;99905.75;10302079;28;20226;-66
2023/10/16 21:08:09;;;;;;;4.67;3.60;;;;;;;8.20;47.52;99799.56;10298022;28;20229;-66
2023/10/16 21:13:10;;;;;;;3.60;3.03;;;;;;;6.84;48.55;100052.53;10299399;28;20320;-65
2023/10/16 21:18:12;;;;;;;5.00;3.67;;;;;;;7.11;49.02;99913.19;10299407;28;20252;-66
2023/10/16 21:23:15;;;;;;;5.30;3.40;;;;;;;7.04;49.13;99905.00;10302898;28;20317;-65
2023/10/16 21:28:17;;;;;;;4.53;3.90;;;;;;;6.40;50.21;99973.50;10295697;28;20241;-66
2023/10/16 21:33:19;;;;;;;5.00;3.50;;;;;;;6.72;49.97;99885.16;10294228;28;20226;-65
2023/10/16 21:38:20;;;;;;;6.43;4.07;;;;;;;5.93;50.54;100022.31;10294832;28;20280;-66
2023/10/16 21:43:22;;;;;;;4.23;3.83;;;;;;;6.00;51.10;99933.06;10297638;28;20642;-65
2023/10/16 21:48:24;;;;;;;5.17;4.20;;;;;;;7.32;50.34;99647.38;10293094;28;20252;-66
2023/10/16 21:53:27;;;;;;;9.73;6.03;;;;;;;6.83;49.90;99828.22;10293802;28;20705;-65
2023/10/16 21:58:29;;;;;;;6.03;4.87;;;;;;;7.59;48.93;99727.13;10288576;28;20230;-65
2023/10/16 22:03:30;;;;;;;6.17;4.17;;;;;;;5.79;51.44;99945.78;10293602;28;20235;-66
2023/10/16 22:08:33;;;;;;;6.90;4.90;;;;;;;6.97;49.97;99733.66;10284677;28;20804;-66
2023/10/16 22:13:34;;;;;;;5.93;4.40;;;;;;;5.80;51.71;99908.47;10294440;28;20249;-66
2023/10/16 22:18:36;;;;;;;5.63;4.67;;;;;;;6.52;51.46;99730.31;10288732;28;20899;-65
2023/10/16 22:23:38;;;;;;;4.73;4.30;;;;;;;6.40;51.34;99782.09;10290321;28;20921;-65
2023/10/16 22:28:41;;;;;;;4.83;4.20;;;;;;;6.16;51.46;99820.81;10288524;28;20218;-65
2023/10/16 22:33:43;;;;;;;5.73;4.13;;;;;;;5.86;52.62;99780.38;10290823;28;20269;-65
2023/10/16 22:38:45;;;;;;;4.30;3.90;;;;;;;5.60;53.11;99795.41;10287194;28;20246;-65
2023/10/16 22:43:50;;;;;;;4.40;3.80;;;;;;;5.63;52.09;99894.19;10290823;28;20245;-65
2023/10/16 22:48:53;;;;;;;6.00;4.10;;;;;;;5.87;53.07;99728.94;10280907;28;20261;-65
2023/10/16 22:53:57;;;;;;;4.30;3.90;;;;;;;5.74;52.36;99826.75;10289334;28;20245;-65
2023/10/16 22:58:59;;;;;;;5.57;4.13;;;;;;;5.77;51.94;99839.72;10283521;28;20336;-65
2023/10/16 23:04:00;;;;;;;4.97;4.07;;;;;;;5.97;52.40;99696.13;10290513;28;20232;-66
2023/10/16 23:09:13;;;;;;;4.70;4.30;;;;;;;5.76;52.27;99789.44;10309504;28;20232;-65
2023/10/16 23:14:15;;;;;;;7.00;4.27;;;;;;;6.25;52.49;99611.75;10291212;28;20242;-65
2023/10/16 23:19:20;;;;;;;4.57;4.03;;;;;;;6.84;50.26;99667.63;10291790;28;20721;-65
2023/10/16 23:24:22;;;;;;;5.83;4.30;;;;;;;6.37;50.96;99729.25;10296088;28;20675;-65
2023/10/16 23:29:24;;;;;;;4.50;4.10;;;;;;;6.86;50.64;99616.94;10299745;28;20235;-66
2023/10/16 23:34:26;;;;;;;5.00;4.20;;;;;;;6.06;52.21;99645.56;10297189;28;20241;-65
2023/10/16 23:39:29;;;;;;;6.57;4.20;;;;;;;5.61;52.35;99782.00;10300606;28;20230;-65
2023/10/16 23:44:33;;;;;;;6.50;4.13;;;;;;;5.91;51.40;99784.41;10308771;28;20241;-65
2023/10/16 23:49:39;;;;;;;5.77;4.33;;;;;;;6.40;50.33;99748.38;10303891;28;20238;-65
2023/10/16 23:54:41;;;;;;;5.03;4.13;;;;;;;6.00;51.46;99728.53;10304138;28;20787;-65
2023/10/16 23:59:48;;;;;;;5.60;4.33;;;;;;;6.91;49.87;99607.47;10298721;28;20650;-65
